sensor_id;sensor_type;location;lat;lon;timestamp;pressure;altitude;pressure_sealevel;temperature;humidity
75072;BME280;63651;55.728;38.022;2024-03-08T00:00:17;99537.53;;;14.62;30.19
75072;BME280;63651;55.728;38.022;2024-03-08T00:05:39;99525.38;;;14.58;30.63
75072;BME280;63651;55.728;38.022;2024-03-08T00:10:42;99510.88;;;14.57;30.89
75072;BME280;63651;55.728;38.022;2024-03-08T00:15:45;99515.41;;;14.63;31.16
75072;BME280;63651;55.728;38.022;2024-03-08T00:20:47;99506.16;;;14.64;30.75
75072;BME280;63651;55.728;38.022;2024-03-08T00:25:50;99498.19;;;14.63;31.34
75072;BME280;63651;55.728;38.022;2024-03-08T00:30:53;99487.84;;;14.65;31.57
75072;BME280;63651;55.728;38.022;2024-03-08T00:35:55;99485.81;;;14.60;31.42
75072;BME280;63651;55.728;38.022;2024-03-08T00:40:57;99471.91;;;14.62;31.19
75072;BME280;63651;55.728;38.022;2024-03-08T00:46:00;99460.63;;;14.58;31.62
75072;BME280;63651;55.728;38.022;2024-03-08T00:51:04;99452.88;;;14.55;31.09
75072;BME280;63651;55.728;38.022;2024-03-08T00:56:07;99452.03;;;14.55;31.08
75072;BME280;63651;55.728;38.022;2024-03-08T01:01:13;99442.78;;;14.56;31.00
75072;BME280;63651;55.728;38.022;2024-03-08T01:06:17;99453.00;;;14.60;31.22
75072;BME280;63651;55.728;38.022;2024-03-08T01:11:20;99456.22;;;14.57;31.24
75072;BME280;63651;55.728;38.022;2024-03-08T01:16:23;99445.50;;;14.56;30.83
75072;BME280;63651;55.728;38.022;2024-03-08T01:21:25;99441.72;;;14.57;30.99
75072;BME280;63651;55.728;38.022;2024-03-08T01:26:27;99422.81;;;14.55;30.91
75072;BME280;63651;55.728;38.022;2024-03-08T01:31:31;99422.22;;;14.53;30.72
75072;BME280;63651;55.728;38.022;2024-03-08T01:36:33;99427.91;;;14.52;30.73
75072;BME280;63651;55.728;38.022;2024-03-08T01:41:36;99411.75;;;14.50;30.14
75072;BME280;63651;55.728;38.022;2024-03-08T01:46:39;99418.88;;;14.51;30.48
75072;BME280;63651;55.728;38.022;2024-03-08T01:51:41;99428.63;;;14.47;29.81
75072;BME280;63651;55.728;38.022;2024-03-08T01:56:44;99424.59;;;14.50;30.16
75072;BME280;63651;55.728;38.022;2024-03-08T02:01:46;99417.09;;;14.45;29.86
75072;BME280;63651;55.728;38.022;2024-03-08T02:06:49;99410.56;;;14.46;30.24
75072;BME280;63651;55.728;38.022;2024-03-08T02:11:51;99402.34;;;14.46;30.59
75072;BME280;63651;55.728;38.022;2024-03-08T02:16:53;99396.88;;;14.46;30.45
75072;BME280;63651;55.728;38.022;2024-03-08T02:22:00;99396.88;;;14.46;30.26
75072;BME280;63651;55.728;38.022;2024-03-08T02:27:05;99400.22;;;14.48;30.31
75072;BME280;63651;55.728;38.022;2024-03-08T02:32:08;99384.06;;;14.47;30.16
75072;BME280;63651;55.728;38.022;2024-03-08T02:37:10;99384.97;;;14.40;30.13
75072;BME280;63651;55.728;38.022;2024-03-08T02:42:13;99378.75;;;14.33;29.34
75072;BME280;63651;55.728;38.022;2024-03-08T02:47:15;99377.09;;;14.32;29.46
75072;BME280;63651;55.728;38.022;2024-03-08T02:52:16;99378.16;;;14.31;29.15
75072;BME280;63651;55.728;38.022;2024-03-08T02:57:18;99366.59;;;14.29;28.92
75072;BME280;63651;55.728;38.022;2024-03-08T03:02:20;99371.25;;;14.29;29.04
75072;BME280;63651;55.728;38.022;2024-03-08T03:07:25;99363.50;;;14.26;28.83
75072;BME280;63651;55.728;38.022;2024-03-08T03:12:30;99354.13;;;14.22;29.07
75072;BME280;63651;55.728;38.022;2024-03-08T03:17:32;99341.06;;;14.24;28.90
75072;BME280;63651;55.728;38.022;2024-03-08T03:22:34;99346.38;;;14.19;29.00
75072;BME280;63651;55.728;38.022;2024-03-08T03:27:36;99334.88;;;14.17;29.12
75072;BME280;63651;55.728;38.022;2024-03-08T03:32:40;99332.13;;;14.17;28.85
75072;BME280;63651;55.728;38.022;2024-03-08T03:37:48;99316.63;;;14.40;29.11
75072;BME280;63651;55.728;38.022;2024-03-08T03:43:03;99316.09;;;14.50;29.06
75072;BME280;63651;55.728;38.022;2024-03-08T03:48:07;99324.53;;;14.60;29.31
75072;BME280;63651;55.728;38.022;2024-03-08T03:53:11;99310.38;;;14.63;28.71
75072;BME280;63651;55.728;38.022;2024-03-08T03:58:15;99317.16;;;14.72;29.29
75072;BME280;63651;55.728;38.022;2024-03-08T04:03:17;99307.16;;;14.78;28.77
75072;BME280;63651;55.728;38.022;2024-03-08T04:08:19;99306.94;;;14.80;28.69
75072;BME280;63651;55.728;38.022;2024-03-08T04:13:21;99309.19;;;14.83;28.53
75072;BME280;63651;55.728;38.022;2024-03-08T04:18:24;99293.38;;;14.85;28.65
75072;BME280;63651;55.728;38.022;2024-03-08T04:23:26;99307.88;;;14.85;28.38
75072;BME280;63651;55.728;38.022;2024-03-08T04:28:30;99297.78;;;14.86;28.67
75072;BME280;63651;55.728;38.022;2024-03-08T04:33:32;99283.72;;;14.94;28.69
75072;BME280;63651;55.728;38.022;2024-03-08T04:38:37;99291.34;;;14.92;28.91
75072;BME280;63651;55.728;38.022;2024-03-08T04:43:42;99294.91;;;14.92;28.41
75072;BME280;63651;55.728;38.022;2024-03-08T04:48:44;99295.38;;;15.01;29.07
75072;BME280;63651;55.728;38.022;2024-03-08T04:53:46;99286.69;;;15.04;28.35
75072;BME280;63651;55.728;38.022;2024-03-08T04:58:48;99281.81;;;15.06;28.88
75072;BME280;63651;55.728;38.022;2024-03-08T05:03:50;99278.59;;;15.09;28.78
75072;BME280;63651;55.728;38.022;2024-03-08T05:08:55;99277.63;;;15.15;28.23
75072;BME280;63651;55.728;38.022;2024-03-08T05:13:57;99278.56;;;15.21;28.52
75072;BME280;63651;55.728;38.022;2024-03-08T05:19:00;99266.63;;;15.27;28.40
75072;BME280;63651;55.728;38.022;2024-03-08T05:24:03;99270.06;;;15.34;28.39
75072;BME280;63651;55.728;38.022;2024-03-08T05:29:05;99262.75;;;15.11;28.63
75072;BME280;63651;55.728;38.022;2024-03-08T05:34:08;99266.81;;;15.09;28.43
75072;BME280;63651;55.728;38.022;2024-03-08T05:39:13;99271.25;;;14.98;28.69
75072;BME280;63651;55.728;38.022;2024-03-08T05:44:16;99267.91;;;14.96;29.59
75072;BME280;63651;55.728;38.022;2024-03-08T05:49:20;99263.97;;;15.03;30.91
75072;BME280;63651;55.728;38.022;2024-03-08T05:54:22;99256.47;;;15.11;31.28
75072;BME280;63651;55.728;38.022;2024-03-08T05:59:26;99256.69;;;15.09;31.02
75072;BME280;63651;55.728;38.022;2024-03-08T06:04:28;99260.38;;;15.15;30.51
75072;BME280;63651;55.728;38.022;2024-03-08T06:09:31;99267.03;;;15.19;30.03
75072;BME280;63651;55.728;38.022;2024-03-08T06:14:33;99262.63;;;15.18;30.17
75072;BME280;63651;55.728;38.022;2024-03-08T06:19:36;99257.75;;;15.20;29.64
75072;BME280;63651;55.728;38.022;2024-03-08T06:24:38;99257.84;;;15.25;29.62
75072;BME280;63651;55.728;38.022;2024-03-08T06:29:41;99242.59;;;15.29;29.44
75072;BME280;63651;55.728;38.022;2024-03-08T06:34:43;99241.38;;;15.36;28.89
75072;BME280;63651;55.728;38.022;2024-03-08T06:39:46;99251.84;;;15.40;28.88
75072;BME280;63651;55.728;38.022;2024-03-08T06:44:48;99246.22;;;15.46;29.33
75072;BME280;63651;55.728;38.022;2024-03-08T06:49:53;99250.38;;;15.49;29.28
75072;BME280;63651;55.728;38.022;2024-03-08T06:54:56;99249.97;;;15.57;29.41
75072;BME280;63651;55.728;38.022;2024-03-08T06:59:58;99254.03;;;15.66;29.59
75072;BME280;63651;55.728;38.022;2024-03-08T07:05:00;99250.22;;;15.67;29.40
75072;BME280;63651;55.728;38.022;2024-03-08T07:10:03;99259.03;;;15.69;29.56
75072;BME280;63651;55.728;38.022;2024-03-08T07:15:06;99254.13;;;15.71;29.11
75072;BME280;63651;55.728;38.022;2024-03-08T07:20:09;99252.50;;;18.12;29.23
75072;BME280;63651;55.728;38.022;2024-03-08T07:25:14;99248.06;;;18.75;27.90
75072;BME280;63651;55.728;38.022;2024-03-08T07:30:26;99247.47;;;19.20;27.15
75072;BME280;63651;55.728;38.022;2024-03-08T07:35:45;99239.00;;;19.37;27.02
75072;BME280;63651;55.728;38.022;2024-03-08T07:40:48;99248.94;;;19.48;26.58
75072;BME280;63651;55.728;38.022;2024-03-08T07:45:50;99237.47;;;19.66;26.49
75072;BME280;63651;55.728;38.022;2024-03-08T07:50:54;99230.91;;;19.93;26.25
75072;BME280;63651;55.728;38.022;2024-03-08T07:55:56;99225.69;;;20.11;25.78
75072;BME280;63651;55.728;38.022;2024-03-08T08:00:58;99227.06;;;20.19;26.41
75072;BME280;63651;55.728;38.022;2024-03-08T08:06:00;99224.84;;;20.21;26.42
75072;BME280;63651;55.728;38.022;2024-03-08T08:11:04;99222.63;;;20.28;26.34
75072;BME280;63651;55.728;38.022;2024-03-08T08:16:07;99221.00;;;20.42;26.29
75072;BME280;63651;55.728;38.022;2024-03-08T08:21:08;99214.09;;;20.45;26.03
75072;BME280;63651;55.728;38.022;2024-03-08T08:26:12;99216.56;;;20.57;26.12
75072;BME280;63651;55.728;38.022;2024-03-08T08:31:14;99208.25;;;20.67;25.88
75072;BME280;63651;55.728;38.022;2024-03-08T08:36:17;99223.16;;;20.71;25.89
75072;BME280;63651;55.728;38.022;2024-03-08T08:41:20;99220.69;;;20.64;26.27
75072;BME280;63651;55.728;38.022;2024-03-08T08:46:23;99222.03;;;20.82;26.21
75072;BME280;63651;55.728;38.022;2024-03-08T08:51:25;99207.13;;;20.78;27.41
75072;BME280;63651;55.728;38.022;2024-03-08T08:56:28;99215.19;;;20.03;26.90
75072;BME280;63651;55.728;38.022;2024-03-08T09:01:30;99208.94;;;19.25;26.42
75072;BME280;63651;55.728;38.022;2024-03-08T09:06:32;99212.69;;;18.99;27.86
75072;BME280;63651;55.728;38.022;2024-03-08T09:11:34;99201.63;;;18.89;27.27
75072;BME280;63651;55.728;38.022;2024-03-08T09:16:36;99209.03;;;18.83;27.97
75072;BME280;63651;55.728;38.022;2024-03-08T09:21:38;99195.00;;;18.84;27.18
75072;BME280;63651;55.728;38.022;2024-03-08T09:26:41;99192.19;;;18.69;27.03
75072;BME280;63651;55.728;38.022;2024-03-08T09:31:45;99194.41;;;18.72;28.91
75072;BME280;63651;55.728;38.022;2024-03-08T09:36:47;99201.66;;;18.46;28.28
75072;BME280;63651;55.728;38.022;2024-03-08T09:41:50;99199.19;;;18.50;28.27
75072;BME280;63651;55.728;38.022;2024-03-08T09:46:52;99197.34;;;18.61;28.34
75072;BME280;63651;55.728;38.022;2024-03-08T09:51:56;99201.91;;;18.45;29.13
75072;BME280;63651;55.728;38.022;2024-03-08T09:56:57;99206.00;;;18.37;30.31
75072;BME280;63651;55.728;38.022;2024-03-08T10:01:59;99193.63;;;18.40;31.74
75072;BME280;63651;55.728;38.022;2024-03-08T10:07:03;99199.66;;;18.37;32.49
75072;BME280;63651;55.728;38.022;2024-03-08T10:12:05;99202.38;;;18.32;32.64
75072;BME280;63651;55.728;38.022;2024-03-08T10:17:07;99197.72;;;18.32;32.36
75072;BME280;63651;55.728;38.022;2024-03-08T10:22:15;99192.44;;;18.26;30.90
75072;BME280;63651;55.728;38.022;2024-03-08T10:27:18;99194.66;;;18.29;31.77
75072;BME280;63651;55.728;38.022;2024-03-08T10:32:20;99192.91;;;18.17;31.70
75072;BME280;63651;55.728;38.022;2024-03-08T10:37:23;99203.28;;;18.10;31.40
75072;BME280;63651;55.728;38.022;2024-03-08T10:42:28;99189.72;;;17.99;31.19
75072;BME280;63651;55.728;38.022;2024-03-08T10:47:31;99194.31;;;17.88;30.31
75072;BME280;63651;55.728;38.022;2024-03-08T10:52:37;99193.41;;;17.77;31.11
75072;BME280;63651;55.728;38.022;2024-03-08T10:57:40;99183.09;;;17.95;30.38
75072;BME280;63651;55.728;38.022;2024-03-08T11:02:45;99162.06;;;18.10;30.20
75072;BME280;63651;55.728;38.022;2024-03-08T11:07:50;99175.38;;;18.23;30.38
75072;BME280;63651;55.728;38.022;2024-03-08T11:12:53;99185.53;;;18.23;29.45
75072;BME280;63651;55.728;38.022;2024-03-08T11:17:58;99168.72;;;18.19;30.00
75072;BME280;63651;55.728;38.022;2024-03-08T11:23:06;99181.31;;;18.10;30.78
75072;BME280;63651;55.728;38.022;2024-03-08T11:28:17;99186.81;;;18.10;30.73
75072;BME280;63651;55.728;38.022;2024-03-08T11:33:31;99178.81;;;18.09;30.45
75072;BME280;63651;55.728;38.022;2024-03-08T11:38:41;99174.97;;;18.10;30.38
75072;BME280;63651;55.728;38.022;2024-03-08T11:43:44;99170.56;;;18.09;30.17
75072;BME280;63651;55.728;38.022;2024-03-08T11:48:48;99165.63;;;18.11;29.19
75072;BME280;63651;55.728;38.022;2024-03-08T11:53:50;99168.34;;;18.06;29.22
75072;BME280;63651;55.728;38.022;2024-03-08T11:58:54;99168.38;;;18.11;28.74
75072;BME280;63651;55.728;38.022;2024-03-08T12:04:17;99168.00;;;17.97;29.11
75072;BME280;63651;55.728;38.022;2024-03-08T12:09:22;99177.59;;;17.95;28.43
75072;BME280;63651;55.728;38.022;2024-03-08T12:14:26;99178.09;;;17.86;28.65
75072;BME280;63651;55.728;38.022;2024-03-08T12:19:29;99180.84;;;17.86;28.62
75072;BME280;63651;55.728;38.022;2024-03-08T12:24:30;99176.97;;;17.82;28.63
75072;BME280;63651;55.728;38.022;2024-03-08T12:29:33;99174.69;;;17.74;28.46
75072;BME280;63651;55.728;38.022;2024-03-08T12:34:35;99158.34;;;17.63;28.67
75072;BME280;63651;55.728;38.022;2024-03-08T12:39:40;99169.16;;;17.69;28.76
75072;BME280;63651;55.728;38.022;2024-03-08T12:44:42;99168.63;;;17.72;28.15
75072;BME280;63651;55.728;38.022;2024-03-08T12:49:45;99185.63;;;17.69;28.34
75072;BME280;63651;55.728;38.022;2024-03-08T12:54:48;99185.63;;;17.69;28.37
75072;BME280;63651;55.728;38.022;2024-03-08T12:59:51;99193.44;;;17.55;28.16
75072;BME280;63651;55.728;38.022;2024-03-08T13:04:56;99198.81;;;17.45;28.38
75072;BME280;63651;55.728;38.022;2024-03-08T13:09:58;99192.59;;;17.28;28.69
75072;BME280;63651;55.728;38.022;2024-03-08T13:15:02;99178.72;;;17.13;28.31
75072;BME280;63651;55.728;38.022;2024-03-08T13:20:06;99175.41;;;17.11;28.86
75072;BME280;63651;55.728;38.022;2024-03-08T13:25:10;99163.97;;;16.97;28.22
75072;BME280;63651;55.728;38.022;2024-03-08T13:30:16;99189.50;;;16.98;28.59
75072;BME280;63651;55.728;38.022;2024-03-08T13:35:20;99177.13;;;16.95;29.04
75072;BME280;63651;55.728;38.022;2024-03-08T13:40:26;99153.25;;;16.74;29.40
75072;BME280;63651;55.728;38.022;2024-03-08T13:45:28;99160.72;;;16.78;29.09
75072;BME280;63651;55.728;38.022;2024-03-08T13:50:31;99172.81;;;16.82;29.14
75072;BME280;63651;55.728;38.022;2024-03-08T13:55:33;99147.38;;;16.65;29.46
75072;BME280;63651;55.728;38.022;2024-03-08T14:00:36;99183.53;;;16.84;29.25
75072;BME280;63651;55.728;38.022;2024-03-08T14:05:39;99184.63;;;16.83;29.03
75072;BME280;63651;55.728;38.022;2024-03-08T14:10:41;99177.75;;;16.80;29.29
75072;BME280;63651;55.728;38.022;2024-03-08T14:15:44;99158.09;;;16.67;29.50
75072;BME280;63651;55.728;38.022;2024-03-08T14:20:48;99165.31;;;16.56;29.74
75072;BME280;63651;55.728;38.022;2024-03-08T14:25:50;99176.16;;;16.46;29.77
75072;BME280;63651;55.728;38.022;2024-03-08T14:30:53;99179.41;;;16.43;30.38
75072;BME280;63651;55.728;38.022;2024-03-08T14:35:56;99165.28;;;16.34;30.26
75072;BME280;63651;55.728;38.022;2024-03-08T14:40:58;99178.59;;;16.25;30.49
75072;BME280;63651;55.728;38.022;2024-03-08T14:46:00;99174.97;;;16.20;30.16
75072;BME280;63651;55.728;38.022;2024-03-08T14:51:05;99170.91;;;16.06;29.68
75072;BME280;63651;55.728;38.022;2024-03-08T14:56:12;99188.09;;;16.01;30.03
75072;BME280;63651;55.728;38.022;2024-03-08T15:01:19;99181.69;;;15.95;30.51
75072;BME280;63651;55.728;38.022;2024-03-08T15:06:41;99198.63;;;15.92;30.72
75072;BME280;63651;55.728;38.022;2024-03-08T15:11:47;99195.06;;;15.92;30.51
75072;BME280;63651;55.728;38.022;2024-03-08T15:16:51;99194.97;;;15.87;30.85
75072;BME280;63651;55.728;38.022;2024-03-08T15:21:53;99187.00;;;15.85;30.88
75072;BME280;63651;55.728;38.022;2024-03-08T15:26:57;99189.16;;;15.83;31.40
75072;BME280;63651;55.728;38.022;2024-03-08T15:32:03;99195.72;;;15.82;31.54
75072;BME280;63651;55.728;38.022;2024-03-08T15:37:07;99197.63;;;15.82;31.45
75072;BME280;63651;55.728;38.022;2024-03-08T15:42:09;99209.91;;;15.79;31.09
75072;BME280;63651;55.728;38.022;2024-03-08T15:47:13;99212.66;;;15.79;31.47
75072;BME280;63651;55.728;38.022;2024-03-08T15:52:15;99199.22;;;15.78;30.79
75072;BME280;63651;55.728;38.022;2024-03-08T15:57:17;99207.69;;;15.76;31.14
75072;BME280;63651;55.728;38.022;2024-03-08T16:02:22;99219.97;;;15.74;31.16
75072;BME280;63651;55.728;38.022;2024-03-08T16:07:27;99212.81;;;15.73;31.61
75072;BME280;63651;55.728;38.022;2024-03-08T16:12:29;99219.72;;;15.75;31.41
75072;BME280;63651;55.728;38.022;2024-03-08T16:17:31;99216.63;;;15.72;31.57
75072;BME280;63651;55.728;38.022;2024-03-08T16:22:33;99216.28;;;15.68;31.90
75072;BME280;63651;55.728;38.022;2024-03-08T16:27:35;99216.22;;;15.63;31.98
75072;BME280;63651;55.728;38.022;2024-03-08T16:32:41;99213.72;;;15.61;31.51
75072;BME280;63651;55.728;38.022;2024-03-08T16:37:45;99207.03;;;15.57;31.86
75072;BME280;63651;55.728;38.022;2024-03-08T16:42:50;99224.50;;;15.56;32.13
75072;BME280;63651;55.728;38.022;2024-03-08T16:47:52;99212.16;;;15.54;31.50
75072;BME280;63651;55.728;38.022;2024-03-08T16:52:56;99208.22;;;15.50;31.42
75072;BME280;63651;55.728;38.022;2024-03-08T16:57:59;99212.63;;;15.51;31.63
75072;BME280;63651;55.728;38.022;2024-03-08T17:03:02;99230.53;;;15.42;30.78
75072;BME280;63651;55.728;38.022;2024-03-08T17:08:04;99220.31;;;15.37;31.06
75072;BME280;63651;55.728;38.022;2024-03-08T17:13:08;99221.63;;;15.34;30.88
75072;BME280;63651;55.728;38.022;2024-03-08T17:18:10;99224.13;;;15.36;31.46
75072;BME280;63651;55.728;38.022;2024-03-08T17:23:12;99220.81;;;15.34;32.14
75072;BME280;63651;55.728;38.022;2024-03-08T17:28:15;99214.75;;;15.32;31.85
75072;BME280;63651;55.728;38.022;2024-03-08T17:33:18;99212.50;;;15.29;32.31
75072;BME280;63651;55.728;38.022;2024-03-08T17:38:22;99220.72;;;15.29;32.33
75072;BME280;63651;55.728;38.022;2024-03-08T17:43:25;99219.38;;;15.31;32.18
75072;BME280;63651;55.728;38.022;2024-03-08T17:48:29;99222.84;;;15.27;32.64
75072;BME280;63651;55.728;38.022;2024-03-08T17:53:31;99224.19;;;15.24;32.24
75072;BME280;63651;55.728;38.022;2024-03-08T17:58:36;99229.66;;;15.24;32.58
75072;BME280;63651;55.728;38.022;2024-03-08T18:03:39;99225.00;;;15.25;32.18
75072;BME280;63651;55.728;38.022;2024-03-08T18:08:41;99223.59;;;15.22;32.20
75072;BME280;63651;55.728;38.022;2024-03-08T18:13:46;99230.97;;;15.22;32.47
75072;BME280;63651;55.728;38.022;2024-03-08T18:18:49;99220.84;;;15.22;32.81
75072;BME280;63651;55.728;38.022;2024-03-08T18:23:52;99232.38;;;15.24;32.49
75072;BME280;63651;55.728;38.022;2024-03-08T18:28:54;99227.16;;;15.23;33.41
75072;BME280;63651;55.728;38.022;2024-03-08T18:33:57;99247.13;;;15.23;33.28
75072;BME280;63651;55.728;38.022;2024-03-08T18:39:01;99208.53;;;15.08;32.65
75072;BME280;63651;55.728;38.022;2024-03-08T18:44:06;99230.63;;;15.18;33.30
75072;BME280;63651;55.728;38.022;2024-03-08T18:49:08;99238.72;;;15.13;32.89
75072;BME280;63651;55.728;38.022;2024-03-08T18:54:11;99241.13;;;15.10;32.55
75072;BME280;63651;55.728;38.022;2024-03-08T18:59:14;99239.47;;;15.09;31.86
75072;BME280;63651;55.728;38.022;2024-03-08T19:04:17;99239.09;;;15.05;32.49
75072;BME280;63651;55.728;38.022;2024-03-08T19:09:19;99237.31;;;15.11;31.94
75072;BME280;63651;55.728;38.022;2024-03-08T19:14:22;99235.31;;;15.06;32.32
75072;BME280;63651;55.728;38.022;2024-03-08T19:19:23;99229.81;;;15.06;32.84
75072;BME280;63651;55.728;38.022;2024-03-08T19:24:26;99232.81;;;15.04;32.63
75072;BME280;63651;55.728;38.022;2024-03-08T19:29:28;99238.28;;;15.04;32.97
75072;BME280;63651;55.728;38.022;2024-03-08T19:34:31;99238.28;;;15.04;33.01
75072;BME280;63651;55.728;38.022;2024-03-08T19:39:34;99238.53;;;15.03;32.96
75072;BME280;63651;55.728;38.022;2024-03-08T19:44:38;99236.63;;;15.03;32.73
75072;BME280;63651;55.728;38.022;2024-03-08T19:49:44;99234.94;;;15.02;33.28
75072;BME280;63651;55.728;38.022;2024-03-08T19:54:46;99236.63;;;15.03;33.37
75072;BME280;63651;55.728;38.022;2024-03-08T19:59:48;99241.50;;;15.01;32.54
75072;BME280;63651;55.728;38.022;2024-03-08T20:04:53;99236.03;;;15.01;32.89
75072;BME280;63651;55.728;38.022;2024-03-08T20:09:58;99234.59;;;14.99;32.56
75072;BME280;63651;55.728;38.022;2024-03-08T20:15:06;99228.31;;;14.98;32.82
75072;BME280;63651;55.728;38.022;2024-03-08T20:20:10;99240.31;;;14.97;32.94
75072;BME280;63651;55.728;38.022;2024-03-08T20:25:22;99227.13;;;14.94;33.45
75072;BME280;63651;55.728;38.022;2024-03-08T20:30:28;99233.78;;;14.98;33.42
75072;BME280;63651;55.728;38.022;2024-03-08T20:35:32;99235.09;;;14.96;32.81
75072;BME280;63651;55.728;38.022;2024-03-08T20:40:37;99215.22;;;15.00;32.87
75072;BME280;63651;55.728;38.022;2024-03-08T20:45:48;99224.97;;;14.96;32.66
75072;BME280;63651;55.728;38.022;2024-03-08T20:50:51;99230.44;;;14.96;32.62
75072;BME280;63651;55.728;38.022;2024-03-08T20:55:54;99239.88;;;14.89;32.62
75072;BME280;63651;55.728;38.022;2024-03-08T21:00:56;99236.06;;;14.90;32.64
75072;BME280;63651;55.728;38.022;2024-03-08T21:06:01;99245.81;;;14.86;32.30
75072;BME280;63651;55.728;38.022;2024-03-08T21:11:04;99253.53;;;14.89;32.69
75072;BME280;63651;55.728;38.022;2024-03-08T21:16:06;99251.03;;;14.87;32.48
75072;BME280;63651;55.728;38.022;2024-03-08T21:21:08;99250.22;;;14.87;33.14
75072;BME280;63651;55.728;38.022;2024-03-08T21:26:11;99245.56;;;14.87;32.69
75072;BME280;63651;55.728;38.022;2024-03-08T21:31:15;99242.50;;;14.84;32.86
75072;BME280;63651;55.728;38.022;2024-03-08T21:36:17;99244.63;;;14.82;32.13
75072;BME280;63651;55.728;38.022;2024-03-08T21:41:21;99243.31;;;14.84;32.84
75072;BME280;63651;55.728;38.022;2024-03-08T21:46:24;99247.84;;;14.79;33.22
75072;BME280;63651;55.728;38.022;2024-03-08T21:51:27;99249.03;;;14.83;32.80
75072;BME280;63651;55.728;38.022;2024-03-08T21:56:30;99256.66;;;14.81;32.83
75072;BME280;63651;55.728;38.022;2024-03-08T22:01:33;99251.53;;;14.72;32.50
75072;BME280;63651;55.728;38.022;2024-03-08T22:06:36;99248.09;;;14.77;32.73
75072;BME280;63651;55.728;38.022;2024-03-08T22:11:39;99248.81;;;14.72;32.60
75072;BME280;63651;55.728;38.022;2024-03-08T22:16:40;99249.88;;;14.71;32.37
75072;BME280;63651;55.728;38.022;2024-03-08T22:21:42;99257.50;;;14.69;32.23
75072;BME280;63651;55.728;38.022;2024-03-08T22:26:44;99257.72;;;14.68;32.36
75072;BME280;63651;55.728;38.022;2024-03-08T22:31:46;99252.75;;;14.65;32.40
75072;BME280;63651;55.728;38.022;2024-03-08T22:36:51;99242.41;;;14.55;32.09
75072;BME280;63651;55.728;38.022;2024-03-08T22:41:54;99260.94;;;14.65;32.15
75072;BME280;63651;55.728;38.022;2024-03-08T22:47:00;99251.66;;;14.66;32.10
75072;BME280;63651;55.728;38.022;2024-03-08T22:52:03;99260.00;;;14.59;31.79
75072;BME280;63651;55.728;38.022;2024-03-08T22:57:05;99263.56;;;14.60;31.85
75072;BME280;63651;55.728;38.022;2024-03-08T23:02:09;99265.22;;;14.61;32.25
75072;BME280;63651;55.728;38.022;2024-03-08T23:07:12;99258.34;;;14.58;31.49
75072;BME280;63651;55.728;38.022;2024-03-08T23:12:14;99267.84;;;14.56;32.06
75072;BME280;63651;55.728;38.022;2024-03-08T23:17:17;99264.03;;;14.57;31.96
75072;BME280;63651;55.728;38.022;2024-03-08T23:22:19;99267.00;;;14.55;31.70
75072;BME280;63651;55.728;38.022;2024-03-08T23:27:24;99255.00;;;14.56;31.70
75072;BME280;63651;55.728;38.022;2024-03-08T23:32:26;99266.19;;;14.55;31.69
75072;BME280;63651;55.728;38.022;2024-03-08T23:37:29;99268.91;;;14.55;31.44
75072;BME280;63651;55.728;38.022;2024-03-08T23:42:32;99267.25;;;14.54;31.82
75072;BME280;63651;55.728;38.022;2024-03-08T23:47:34;99261.53;;;14.55;31.58
75072;BME280;63651;55.728;38.022;2024-03-08T23:52:37;99269.97;;;14.54;31.30
75072;BME280;63651;55.728;38.022;2024-03-08T23:57:48;99269.38;;;14.52;31.29
